sensor_id;sensor_type;location;lat;lon;timestamp;P1;durP1;ratioP1;P2;durP2;ratioP2
68449;SDS011;67758;39.572;2.652;2024-03-29T00:01:24;24.95;;;2.67;;
68449;SDS011;67758;39.572;2.652;2024-03-29T00:03:50;19.07;;;2.30;;
68449;SDS011;67758;39.572;2.652;2024-03-29T00:06:16;19.25;;;2.08;;
68449;SDS011;67758;39.572;2.652;2024-03-29T00:08:42;15.38;;;1.85;;
68449;SDS011;67758;39.572;2.652;2024-03-29T00:11:07;17.33;;;2.63;;
68449;SDS011;67758;39.572;2.652;2024-03-29T00:13:33;14.40;;;1.60;;
68449;SDS011;67758;39.572;2.652;2024-03-29T00:16:00;15.30;;;2.05;;
68449;SDS011;67758;39.572;2.652;2024-03-29T00:18:26;19.83;;;2.33;;
68449;SDS011;67758;39.572;2.652;2024-03-29T00:20:51;19.80;;;2.50;;
68449;SDS011;67758;39.572;2.652;2024-03-29T00:23:17;14.65;;;1.63;;
68449;SDS011;67758;39.572;2.652;2024-03-29T00:25:43;13.60;;;2.00;;
68449;SDS011;67758;39.572;2.652;2024-03-29T00:28:09;16.00;;;2.47;;
68449;SDS011;67758;39.572;2.652;2024-03-29T00:30:34;16.47;;;2.73;;
68449;SDS011;67758;39.572;2.652;2024-03-29T00:33:00;20.33;;;2.77;;
68449;SDS011;67758;39.572;2.652;2024-03-29T00:35:26;13.90;;;2.67;;
68449;SDS011;67758;39.572;2.652;2024-03-29T00:37:51;19.17;;;1.93;;
68449;SDS011;67758;39.572;2.652;2024-03-29T00:40:17;18.27;;;2.20;;
68449;SDS011;67758;39.572;2.652;2024-03-29T00:42:43;17.73;;;2.03;;
68449;SDS011;67758;39.572;2.652;2024-03-29T00:45:08;19.83;;;2.92;;
68449;SDS011;67758;39.572;2.652;2024-03-29T00:47:34;15.80;;;1.80;;
68449;SDS011;67758;39.572;2.652;2024-03-29T00:50:00;13.65;;;1.88;;
68449;SDS011;67758;39.572;2.652;2024-03-29T00:52:25;21.73;;;2.83;;
68449;SDS011;67758;39.572;2.652;2024-03-29T00:54:51;14.23;;;3.03;;
68449;SDS011;67758;39.572;2.652;2024-03-29T00:57:16;20.35;;;2.55;;
68449;SDS011;67758;39.572;2.652;2024-03-29T00:59:43;23.30;;;3.30;;
68449;SDS011;67758;39.572;2.652;2024-03-29T01:02:09;25.02;;;2.88;;
68449;SDS011;67758;39.572;2.652;2024-03-29T01:04:35;26.87;;;2.90;;
68449;SDS011;67758;39.572;2.652;2024-03-29T01:07:01;19.92;;;2.28;;
68449;SDS011;67758;39.572;2.652;2024-03-29T01:09:26;24.17;;;2.57;;
68449;SDS011;67758;39.572;2.652;2024-03-29T01:11:52;18.80;;;2.38;;
68449;SDS011;67758;39.572;2.652;2024-03-29T01:14:18;17.85;;;2.55;;
68449;SDS011;67758;39.572;2.652;2024-03-29T01:16:44;23.27;;;2.30;;
68449;SDS011;67758;39.572;2.652;2024-03-29T01:19:10;20.48;;;2.78;;
68449;SDS011;67758;39.572;2.652;2024-03-29T01:21:36;17.00;;;2.63;;
68449;SDS011;67758;39.572;2.652;2024-03-29T01:24:02;20.45;;;2.47;;
68449;SDS011;67758;39.572;2.652;2024-03-29T01:26:28;16.88;;;2.33;;
68449;SDS011;67758;39.572;2.652;2024-03-29T01:28:53;18.47;;;2.57;;
68449;SDS011;67758;39.572;2.652;2024-03-29T01:31:19;19.17;;;2.70;;
68449;SDS011;67758;39.572;2.652;2024-03-29T01:33:45;19.80;;;2.58;;
68449;SDS011;67758;39.572;2.652;2024-03-29T01:36:10;16.13;;;2.33;;
68449;SDS011;67758;39.572;2.652;2024-03-29T01:38:36;21.48;;;2.17;;
68449;SDS011;67758;39.572;2.652;2024-03-29T01:41:01;18.27;;;2.03;;
68449;SDS011;67758;39.572;2.652;2024-03-29T01:43:27;19.25;;;2.20;;
68449;SDS011;67758;39.572;2.652;2024-03-29T01:45:53;16.67;;;2.00;;
68449;SDS011;67758;39.572;2.652;2024-03-29T01:48:21;17.75;;;2.20;;
68449;SDS011;67758;39.572;2.652;2024-03-29T01:50:48;18.85;;;2.20;;
68449;SDS011;67758;39.572;2.652;2024-03-29T01:53:14;23.43;;;2.60;;
68449;SDS011;67758;39.572;2.652;2024-03-29T01:55:41;14.40;;;2.20;;
68449;SDS011;67758;39.572;2.652;2024-03-29T01:58:08;20.40;;;2.80;;
68449;SDS011;67758;39.572;2.652;2024-03-29T02:00:36;19.10;;;2.03;;
68449;SDS011;67758;39.572;2.652;2024-03-29T02:03:03;13.40;;;1.90;;
68449;SDS011;67758;39.572;2.652;2024-03-29T02:05:34;18.27;;;2.50;;
68449;SDS011;67758;39.572;2.652;2024-03-29T02:08:00;17.98;;;2.10;;
68449;SDS011;67758;39.572;2.652;2024-03-29T02:10:26;18.10;;;1.95;;
68449;SDS011;67758;39.572;2.652;2024-03-29T02:12:52;22.43;;;3.43;;
68449;SDS011;67758;39.572;2.652;2024-03-29T02:15:17;22.53;;;2.83;;
68449;SDS011;67758;39.572;2.652;2024-03-29T02:17:43;17.45;;;3.08;;
68449;SDS011;67758;39.572;2.652;2024-03-29T02:20:09;15.27;;;2.47;;
68449;SDS011;67758;39.572;2.652;2024-03-29T02:22:36;13.82;;;2.00;;
68449;SDS011;67758;39.572;2.652;2024-03-29T02:25:09;16.42;;;2.28;;
68449;SDS011;67758;39.572;2.652;2024-03-29T02:27:35;17.05;;;2.42;;
68449;SDS011;67758;39.572;2.652;2024-03-29T02:30:01;21.00;;;3.20;;
68449;SDS011;67758;39.572;2.652;2024-03-29T02:32:27;18.10;;;2.25;;
68449;SDS011;67758;39.572;2.652;2024-03-29T02:34:53;18.67;;;3.27;;
68449;SDS011;67758;39.572;2.652;2024-03-29T02:37:18;18.30;;;2.50;;
68449;SDS011;67758;39.572;2.652;2024-03-29T02:39:44;12.32;;;1.95;;
68449;SDS011;67758;39.572;2.652;2024-03-29T02:42:10;20.00;;;2.00;;
68449;SDS011;67758;39.572;2.652;2024-03-29T02:44:35;18.07;;;2.30;;
68449;SDS011;67758;39.572;2.652;2024-03-29T02:47:01;17.38;;;2.80;;
68449;SDS011;67758;39.572;2.652;2024-03-29T02:49:27;17.87;;;2.20;;
68449;SDS011;67758;39.572;2.652;2024-03-29T02:51:52;18.52;;;1.85;;
68449;SDS011;67758;39.572;2.652;2024-03-29T02:54:19;17.27;;;2.30;;
68449;SDS011;67758;39.572;2.652;2024-03-29T02:56:45;17.85;;;2.03;;
68449;SDS011;67758;39.572;2.652;2024-03-29T02:59:10;17.93;;;2.00;;
68449;SDS011;67758;39.572;2.652;2024-03-29T03:01:36;15.00;;;2.05;;
68449;SDS011;67758;39.572;2.652;2024-03-29T03:04:02;17.93;;;2.27;;
68449;SDS011;67758;39.572;2.652;2024-03-29T03:06:28;11.43;;;1.33;;
68449;SDS011;67758;39.572;2.652;2024-03-29T03:08:53;17.77;;;2.13;;
68449;SDS011;67758;39.572;2.652;2024-03-29T03:11:37;15.77;;;1.80;;
68449;SDS011;67758;39.572;2.652;2024-03-29T03:14:04;14.50;;;2.53;;
68449;SDS011;67758;39.572;2.652;2024-03-29T03:16:30;12.82;;;1.60;;
68449;SDS011;67758;39.572;2.652;2024-03-29T03:18:55;15.38;;;2.13;;
68449;SDS011;67758;39.572;2.652;2024-03-29T03:21:21;18.07;;;2.10;;
68449;SDS011;67758;39.572;2.652;2024-03-29T03:23:46;14.53;;;1.77;;
68449;SDS011;67758;39.572;2.652;2024-03-29T03:26:12;15.45;;;2.03;;
68449;SDS011;67758;39.572;2.652;2024-03-29T03:28:37;16.00;;;1.70;;
68449;SDS011;67758;39.572;2.652;2024-03-29T03:31:03;16.20;;;2.47;;
68449;SDS011;67758;39.572;2.652;2024-03-29T03:33:28;17.85;;;2.20;;
68449;SDS011;67758;39.572;2.652;2024-03-29T03:35:54;15.50;;;1.83;;
68449;SDS011;67758;39.572;2.652;2024-03-29T03:38:20;17.17;;;1.95;;
68449;SDS011;67758;39.572;2.652;2024-03-29T03:40:45;16.40;;;1.73;;
68449;SDS011;67758;39.572;2.652;2024-03-29T03:43:11;18.73;;;2.37;;
68449;SDS011;67758;39.572;2.652;2024-03-29T03:45:37;15.80;;;2.03;;
68449;SDS011;67758;39.572;2.652;2024-03-29T03:48:04;20.97;;;2.30;;
68449;SDS011;67758;39.572;2.652;2024-03-29T03:50:31;15.30;;;2.03;;
68449;SDS011;67758;39.572;2.652;2024-03-29T03:52:56;16.15;;;1.75;;
68449;SDS011;67758;39.572;2.652;2024-03-29T03:55:22;12.88;;;1.88;;
68449;SDS011;67758;39.572;2.652;2024-03-29T03:57:48;12.07;;;2.42;;
68449;SDS011;67758;39.572;2.652;2024-03-29T04:00:14;16.17;;;2.10;;
68449;SDS011;67758;39.572;2.652;2024-03-29T04:02:40;17.02;;;1.88;;
68449;SDS011;67758;39.572;2.652;2024-03-29T04:05:06;19.73;;;2.03;;
68449;SDS011;67758;39.572;2.652;2024-03-29T04:07:32;17.95;;;1.67;;
68449;SDS011;67758;39.572;2.652;2024-03-29T04:09:58;11.80;;;1.80;;
68449;SDS011;67758;39.572;2.652;2024-03-29T04:12:23;17.23;;;1.80;;
68449;SDS011;67758;39.572;2.652;2024-03-29T04:14:49;15.70;;;2.13;;
68449;SDS011;67758;39.572;2.652;2024-03-29T04:17:15;9.57;;;1.50;;
68449;SDS011;67758;39.572;2.652;2024-03-29T04:19:40;12.30;;;2.30;;
68449;SDS011;67758;39.572;2.652;2024-03-29T04:22:06;14.17;;;1.90;;
68449;SDS011;67758;39.572;2.652;2024-03-29T04:24:31;15.87;;;1.60;;
68449;SDS011;67758;39.572;2.652;2024-03-29T04:26:57;13.27;;;1.55;;
68449;SDS011;67758;39.572;2.652;2024-03-29T04:29:23;13.77;;;2.03;;
68449;SDS011;67758;39.572;2.652;2024-03-29T04:31:48;14.13;;;1.70;;
68449;SDS011;67758;39.572;2.652;2024-03-29T04:34:14;11.50;;;1.53;;
68449;SDS011;67758;39.572;2.652;2024-03-29T04:36:40;15.00;;;1.50;;
68449;SDS011;67758;39.572;2.652;2024-03-29T04:39:05;14.80;;;1.45;;
68449;SDS011;67758;39.572;2.652;2024-03-29T04:41:32;11.98;;;1.65;;
68449;SDS011;67758;39.572;2.652;2024-03-29T04:44:07;14.60;;;2.00;;
68449;SDS011;67758;39.572;2.652;2024-03-29T04:46:33;15.73;;;2.30;;
68449;SDS011;67758;39.572;2.652;2024-03-29T04:48:59;15.18;;;1.98;;
68449;SDS011;67758;39.572;2.652;2024-03-29T04:51:25;15.55;;;2.63;;
68449;SDS011;67758;39.572;2.652;2024-03-29T04:53:50;16.33;;;1.70;;
68449;SDS011;67758;39.572;2.652;2024-03-29T04:56:16;14.75;;;2.17;;
68449;SDS011;67758;39.572;2.652;2024-03-29T04:58:42;23.73;;;2.37;;
68449;SDS011;67758;39.572;2.652;2024-03-29T05:01:07;16.63;;;2.05;;
68449;SDS011;67758;39.572;2.652;2024-03-29T05:03:33;13.37;;;1.53;;
68449;SDS011;67758;39.572;2.652;2024-03-29T05:05:58;18.88;;;2.45;;
68449;SDS011;67758;39.572;2.652;2024-03-29T05:08:24;21.08;;;2.58;;
68449;SDS011;67758;39.572;2.652;2024-03-29T05:10:50;16.57;;;2.00;;
68449;SDS011;67758;39.572;2.652;2024-03-29T05:13:16;13.70;;;1.50;;
68449;SDS011;67758;39.572;2.652;2024-03-29T05:15:42;20.20;;;2.08;;
68449;SDS011;67758;39.572;2.652;2024-03-29T05:18:08;23.40;;;2.47;;
68449;SDS011;67758;39.572;2.652;2024-03-29T05:20:34;16.88;;;1.67;;
68449;SDS011;67758;39.572;2.652;2024-03-29T05:22:59;11.47;;;1.57;;
68449;SDS011;67758;39.572;2.652;2024-03-29T05:25:25;15.55;;;1.55;;
68449;SDS011;67758;39.572;2.652;2024-03-29T05:27:52;13.70;;;1.65;;
68449;SDS011;67758;39.572;2.652;2024-03-29T05:30:17;17.63;;;1.80;;
68449;SDS011;67758;39.572;2.652;2024-03-29T05:32:43;17.00;;;1.90;;
68449;SDS011;67758;39.572;2.652;2024-03-29T05:35:11;9.53;;;1.53;;
68449;SDS011;67758;39.572;2.652;2024-03-29T05:37:39;11.98;;;1.30;;
68449;SDS011;67758;39.572;2.652;2024-03-29T05:40:04;15.57;;;2.28;;
68449;SDS011;67758;39.572;2.652;2024-03-29T05:42:32;13.63;;;1.83;;
68449;SDS011;67758;39.572;2.652;2024-03-29T05:44:59;13.93;;;3.10;;
68449;SDS011;67758;39.572;2.652;2024-03-29T05:47:25;18.00;;;1.70;;
68449;SDS011;67758;39.572;2.652;2024-03-29T05:49:51;12.30;;;1.37;;
68449;SDS011;67758;39.572;2.652;2024-03-29T05:52:17;21.13;;;1.55;;
68449;SDS011;67758;39.572;2.652;2024-03-29T05:54:43;9.33;;;1.80;;
68449;SDS011;67758;39.572;2.652;2024-03-29T05:57:09;9.82;;;1.13;;
68449;SDS011;67758;39.572;2.652;2024-03-29T05:59:36;17.33;;;1.40;;
68449;SDS011;67758;39.572;2.652;2024-03-29T06:02:02;17.42;;;1.45;;
68449;SDS011;67758;39.572;2.652;2024-03-29T06:04:28;9.30;;;1.23;;
68449;SDS011;67758;39.572;2.652;2024-03-29T06:07:03;16.73;;;1.73;;
68449;SDS011;67758;39.572;2.652;2024-03-29T06:09:30;15.55;;;1.55;;
68449;SDS011;67758;39.572;2.652;2024-03-29T06:11:56;16.10;;;1.50;;
68449;SDS011;67758;39.572;2.652;2024-03-29T06:14:25;15.20;;;1.52;;
68449;SDS011;67758;39.572;2.652;2024-03-29T06:17:10;11.00;;;1.20;;
68449;SDS011;67758;39.572;2.652;2024-03-29T06:19:49;15.75;;;1.25;;
68449;SDS011;67758;39.572;2.652;2024-03-29T06:22:21;12.30;;;1.30;;
68449;SDS011;67758;39.572;2.652;2024-03-29T06:24:53;16.02;;;1.70;;
68449;SDS011;67758;39.572;2.652;2024-03-29T06:27:19;13.48;;;1.83;;
68449;SDS011;67758;39.572;2.652;2024-03-29T06:29:45;13.10;;;1.73;;
68449;SDS011;67758;39.572;2.652;2024-03-29T06:32:12;18.15;;;1.58;;
68449;SDS011;67758;39.572;2.652;2024-03-29T06:34:37;16.40;;;2.00;;
68449;SDS011;67758;39.572;2.652;2024-03-29T06:37:03;19.73;;;1.80;;
68449;SDS011;67758;39.572;2.652;2024-03-29T06:39:30;18.17;;;2.10;;
68449;SDS011;67758;39.572;2.652;2024-03-29T06:41:55;21.73;;;1.40;;
68449;SDS011;67758;39.572;2.652;2024-03-29T06:44:21;16.27;;;1.65;;
68449;SDS011;67758;39.572;2.652;2024-03-29T06:46:47;14.77;;;2.20;;
68449;SDS011;67758;39.572;2.652;2024-03-29T06:49:12;9.23;;;1.00;;
68449;SDS011;67758;39.572;2.652;2024-03-29T06:51:41;17.63;;;2.88;;
68449;SDS011;67758;39.572;2.652;2024-03-29T06:54:06;16.00;;;2.22;;
68449;SDS011;67758;39.572;2.652;2024-03-29T06:56:32;19.67;;;2.27;;
68449;SDS011;67758;39.572;2.652;2024-03-29T06:58:58;13.70;;;1.60;;
68449;SDS011;67758;39.572;2.652;2024-03-29T07:01:24;14.30;;;1.50;;
68449;SDS011;67758;39.572;2.652;2024-03-29T07:03:50;13.32;;;1.63;;
68449;SDS011;67758;39.572;2.652;2024-03-29T07:06:15;16.30;;;1.40;;
68449;SDS011;67758;39.572;2.652;2024-03-29T07:08:41;15.70;;;1.98;;
68449;SDS011;67758;39.572;2.652;2024-03-29T07:11:06;11.03;;;1.83;;
68449;SDS011;67758;39.572;2.652;2024-03-29T07:13:32;12.88;;;2.22;;
68449;SDS011;67758;39.572;2.652;2024-03-29T07:15:58;15.70;;;2.17;;
68449;SDS011;67758;39.572;2.652;2024-03-29T07:18:27;18.45;;;1.65;;
68449;SDS011;67758;39.572;2.652;2024-03-29T07:20:53;13.90;;;1.50;;
68449;SDS011;67758;39.572;2.652;2024-03-29T07:23:19;15.85;;;1.92;;
68449;SDS011;67758;39.572;2.652;2024-03-29T07:25:45;14.93;;;2.10;;
68449;SDS011;67758;39.572;2.652;2024-03-29T07:28:22;14.57;;;2.47;;
68449;SDS011;67758;39.572;2.652;2024-03-29T07:30:47;16.00;;;1.80;;
68449;SDS011;67758;39.572;2.652;2024-03-29T07:33:15;14.63;;;1.42;;
68449;SDS011;67758;39.572;2.652;2024-03-29T07:35:41;12.68;;;1.30;;
68449;SDS011;67758;39.572;2.652;2024-03-29T07:38:07;15.57;;;2.30;;
68449;SDS011;67758;39.572;2.652;2024-03-29T07:40:33;13.95;;;1.60;;
68449;SDS011;67758;39.572;2.652;2024-03-29T07:42:59;10.38;;;1.58;;
68449;SDS011;67758;39.572;2.652;2024-03-29T07:45:26;10.95;;;1.50;;
68449;SDS011;67758;39.572;2.652;2024-03-29T07:47:52;13.73;;;1.60;;
68449;SDS011;67758;39.572;2.652;2024-03-29T07:50:21;12.02;;;1.58;;
68449;SDS011;67758;39.572;2.652;2024-03-29T07:52:46;13.63;;;2.10;;
68449;SDS011;67758;39.572;2.652;2024-03-29T07:55:12;12.40;;;1.42;;
68449;SDS011;67758;39.572;2.652;2024-03-29T07:57:39;18.30;;;2.37;;
68449;SDS011;67758;39.572;2.652;2024-03-29T08:00:05;14.80;;;1.50;;
68449;SDS011;67758;39.572;2.652;2024-03-29T08:02:31;15.68;;;1.40;;
68449;SDS011;67758;39.572;2.652;2024-03-29T08:04:57;13.65;;;2.10;;
68449;SDS011;67758;39.572;2.652;2024-03-29T08:07:23;14.07;;;1.73;;
68449;SDS011;67758;39.572;2.652;2024-03-29T08:09:49;14.98;;;1.83;;
68449;SDS011;67758;39.572;2.652;2024-03-29T08:12:15;12.00;;;1.30;;
68449;SDS011;67758;39.572;2.652;2024-03-29T08:14:41;7.73;;;1.10;;
68449;SDS011;67758;39.572;2.652;2024-03-29T08:17:07;13.52;;;1.60;;
68449;SDS011;67758;39.572;2.652;2024-03-29T08:19:39;14.75;;;1.25;;
68449;SDS011;67758;39.572;2.652;2024-03-29T08:22:20;13.85;;;1.40;;
68449;SDS011;67758;39.572;2.652;2024-03-29T08:24:46;11.57;;;1.20;;
68449;SDS011;67758;39.572;2.652;2024-03-29T08:27:11;12.43;;;2.30;;
68449;SDS011;67758;39.572;2.652;2024-03-29T08:29:37;19.52;;;1.83;;
68449;SDS011;67758;39.572;2.652;2024-03-29T08:32:03;16.87;;;1.43;;
68449;SDS011;67758;39.572;2.652;2024-03-29T08:34:29;10.93;;;0.98;;
68449;SDS011;67758;39.572;2.652;2024-03-29T08:37:00;13.02;;;1.27;;
68449;SDS011;67758;39.572;2.652;2024-03-29T08:39:28;15.07;;;1.38;;
68449;SDS011;67758;39.572;2.652;2024-03-29T08:41:54;18.25;;;2.05;;
68449;SDS011;67758;39.572;2.652;2024-03-29T08:44:20;14.57;;;1.63;;
68449;SDS011;67758;39.572;2.652;2024-03-29T08:46:45;10.95;;;0.93;;
68449;SDS011;67758;39.572;2.652;2024-03-29T08:49:11;11.30;;;1.10;;
68449;SDS011;67758;39.572;2.652;2024-03-29T08:51:37;13.47;;;1.40;;
68449;SDS011;67758;39.572;2.652;2024-03-29T08:54:02;9.30;;;1.45;;
68449;SDS011;67758;39.572;2.652;2024-03-29T08:56:31;11.75;;;2.10;;
68449;SDS011;67758;39.572;2.652;2024-03-29T08:58:57;11.70;;;1.73;;
68449;SDS011;67758;39.572;2.652;2024-03-29T09:01:26;10.30;;;1.42;;
68449;SDS011;67758;39.572;2.652;2024-03-29T09:03:52;12.95;;;1.98;;
68449;SDS011;67758;39.572;2.652;2024-03-29T09:06:18;14.77;;;1.83;;
68449;SDS011;67758;39.572;2.652;2024-03-29T09:08:44;10.35;;;1.40;;
68449;SDS011;67758;39.572;2.652;2024-03-29T09:11:10;12.90;;;1.13;;
68449;SDS011;67758;39.572;2.652;2024-03-29T09:13:36;15.88;;;1.25;;
68449;SDS011;67758;39.572;2.652;2024-03-29T09:16:02;16.77;;;1.45;;
68449;SDS011;67758;39.572;2.652;2024-03-29T09:18:28;9.50;;;1.33;;
68449;SDS011;67758;39.572;2.652;2024-03-29T09:20:57;10.88;;;1.65;;
68449;SDS011;67758;39.572;2.652;2024-03-29T09:23:25;10.45;;;1.38;;
68449;SDS011;67758;39.572;2.652;2024-03-29T09:25:53;11.75;;;1.80;;
68449;SDS011;67758;39.572;2.652;2024-03-29T09:28:19;14.37;;;1.00;;
68449;SDS011;67758;39.572;2.652;2024-03-29T09:30:46;12.02;;;1.27;;
68449;SDS011;67758;39.572;2.652;2024-03-29T09:33:12;17.63;;;1.70;;
68449;SDS011;67758;39.572;2.652;2024-03-29T09:35:38;10.50;;;0.93;;
68449;SDS011;67758;39.572;2.652;2024-03-29T09:38:04;9.68;;;1.20;;
68449;SDS011;67758;39.572;2.652;2024-03-29T09:40:30;8.63;;;1.07;;
68449;SDS011;67758;39.572;2.652;2024-03-29T09:43:00;11.20;;;1.65;;
68449;SDS011;67758;39.572;2.652;2024-03-29T09:45:35;14.18;;;1.50;;
68449;SDS011;67758;39.572;2.652;2024-03-29T09:48:06;15.65;;;1.40;;
68449;SDS011;67758;39.572;2.652;2024-03-29T09:50:37;15.00;;;1.63;;
68449;SDS011;67758;39.572;2.652;2024-03-29T09:53:05;11.15;;;1.48;;
68449;SDS011;67758;39.572;2.652;2024-03-29T09:55:33;9.57;;;1.20;;
68449;SDS011;67758;39.572;2.652;2024-03-29T09:58:00;15.32;;;1.20;;
68449;SDS011;67758;39.572;2.652;2024-03-29T10:00:25;12.32;;;1.83;;
68449;SDS011;67758;39.572;2.652;2024-03-29T10:02:53;9.65;;;1.83;;
68449;SDS011;67758;39.572;2.652;2024-03-29T10:05:24;10.07;;;1.80;;
68449;SDS011;67758;39.572;2.652;2024-03-29T10:07:52;12.18;;;1.40;;
68449;SDS011;67758;39.572;2.652;2024-03-29T10:10:18;11.43;;;1.30;;
68449;SDS011;67758;39.572;2.652;2024-03-29T10:12:44;7.83;;;1.10;;
68449;SDS011;67758;39.572;2.652;2024-03-29T10:15:10;13.97;;;1.73;;
68449;SDS011;67758;39.572;2.652;2024-03-29T10:17:45;8.55;;;1.27;;
68449;SDS011;67758;39.572;2.652;2024-03-29T10:20:11;7.30;;;0.77;;
68449;SDS011;67758;39.572;2.652;2024-03-29T10:22:44;7.28;;;0.95;;
68449;SDS011;67758;39.572;2.652;2024-03-29T10:25:11;9.20;;;1.63;;
68449;SDS011;67758;39.572;2.652;2024-03-29T10:27:40;12.20;;;1.20;;
68449;SDS011;67758;39.572;2.652;2024-03-29T10:30:07;11.73;;;1.38;;
68449;SDS011;67758;39.572;2.652;2024-03-29T10:32:34;11.40;;;1.60;;
68449;SDS011;67758;39.572;2.652;2024-03-29T10:35:06;14.15;;;1.77;;
68449;SDS011;67758;39.572;2.652;2024-03-29T10:37:36;8.80;;;1.40;;
68449;SDS011;67758;39.572;2.652;2024-03-29T10:40:10;7.77;;;1.40;;
68449;SDS011;67758;39.572;2.652;2024-03-29T10:42:40;9.95;;;1.52;;
68449;SDS011;67758;39.572;2.652;2024-03-29T10:45:06;8.43;;;1.42;;
68449;SDS011;67758;39.572;2.652;2024-03-29T10:47:33;7.38;;;1.40;;
68449;SDS011;67758;39.572;2.652;2024-03-29T10:50:00;9.55;;;1.45;;
68449;SDS011;67758;39.572;2.652;2024-03-29T10:52:27;7.40;;;1.03;;
68449;SDS011;67758;39.572;2.652;2024-03-29T10:54:53;7.90;;;1.38;;
68449;SDS011;67758;39.572;2.652;2024-03-29T10:57:22;9.40;;;2.22;;
68449;SDS011;67758;39.572;2.652;2024-03-29T11:02:51;9.68;;;1.67;;
68449;SDS011;67758;39.572;2.652;2024-03-29T11:05:38;10.00;;;1.60;;
68449;SDS011;67758;39.572;2.652;2024-03-29T11:08:15;7.22;;;1.33;;
68449;SDS011;67758;39.572;2.652;2024-03-29T11:10:45;12.60;;;1.55;;
68449;SDS011;67758;39.572;2.652;2024-03-29T11:13:34;10.20;;;1.75;;
68449;SDS011;67758;39.572;2.652;2024-03-29T11:16:14;10.27;;;1.58;;
68449;SDS011;67758;39.572;2.652;2024-03-29T11:18:44;7.22;;;1.77;;
68449;SDS011;67758;39.572;2.652;2024-03-29T11:21:12;14.48;;;1.80;;
68449;SDS011;67758;39.572;2.652;2024-03-29T11:23:39;11.63;;;2.17;;
68449;SDS011;67758;39.572;2.652;2024-03-29T11:26:04;10.27;;;1.88;;
68449;SDS011;67758;39.572;2.652;2024-03-29T11:28:34;8.98;;;1.50;;
68449;SDS011;67758;39.572;2.652;2024-03-29T11:31:01;10.53;;;2.43;;
68449;SDS011;67758;39.572;2.652;2024-03-29T11:33:32;11.02;;;3.20;;
68449;SDS011;67758;39.572;2.652;2024-03-29T11:36:15;9.63;;;3.45;;
68449;SDS011;67758;39.572;2.652;2024-03-29T11:38:53;11.80;;;3.72;;
68449;SDS011;67758;39.572;2.652;2024-03-29T11:41:19;10.30;;;3.05;;
68449;SDS011;67758;39.572;2.652;2024-03-29T11:43:49;11.90;;;2.63;;
68449;SDS011;67758;39.572;2.652;2024-03-29T11:46:16;9.07;;;2.25;;
68449;SDS011;67758;39.572;2.652;2024-03-29T11:48:42;10.60;;;2.30;;
68449;SDS011;67758;39.572;2.652;2024-03-29T11:51:10;8.82;;;1.77;;
68449;SDS011;67758;39.572;2.652;2024-03-29T11:53:39;6.68;;;2.00;;
68449;SDS011;67758;39.572;2.652;2024-03-29T11:56:05;9.33;;;2.00;;
68449;SDS011;67758;39.572;2.652;2024-03-29T11:58:32;14.43;;;2.13;;
68449;SDS011;67758;39.572;2.652;2024-03-29T12:00:59;12.90;;;3.10;;
68449;SDS011;67758;39.572;2.652;2024-03-29T12:03:25;14.75;;;3.30;;
68449;SDS011;67758;39.572;2.652;2024-03-29T12:05:53;22.85;;;2.97;;
68449;SDS011;67758;39.572;2.652;2024-03-29T12:08:22;21.90;;;3.73;;
68449;SDS011;67758;39.572;2.652;2024-03-29T12:10:51;24.20;;;3.25;;
68449;SDS011;67758;39.572;2.652;2024-03-29T12:13:17;20.35;;;3.88;;
68449;SDS011;67758;39.572;2.652;2024-03-29T12:15:43;13.80;;;2.90;;
68449;SDS011;67758;39.572;2.652;2024-03-29T12:18:09;20.88;;;3.50;;
68449;SDS011;67758;39.572;2.652;2024-03-29T12:20:36;16.65;;;3.70;;
68449;SDS011;67758;39.572;2.652;2024-03-29T12:23:03;25.88;;;3.85;;
68449;SDS011;67758;39.572;2.652;2024-03-29T12:25:32;24.90;;;4.22;;
68449;SDS011;67758;39.572;2.652;2024-03-29T12:27:59;26.15;;;4.18;;
68449;SDS011;67758;39.572;2.652;2024-03-29T12:30:25;26.48;;;5.55;;
68449;SDS011;67758;39.572;2.652;2024-03-29T12:33:11;30.33;;;5.20;;
68449;SDS011;67758;39.572;2.652;2024-03-29T12:35:48;39.25;;;5.00;;
68449;SDS011;67758;39.572;2.652;2024-03-29T12:38:15;31.50;;;5.80;;
68449;SDS011;67758;39.572;2.652;2024-03-29T12:40:42;34.60;;;5.53;;
68449;SDS011;67758;39.572;2.652;2024-03-29T12:43:09;38.17;;;5.60;;
68449;SDS011;67758;39.572;2.652;2024-03-29T12:45:37;41.25;;;6.20;;
68449;SDS011;67758;39.572;2.652;2024-03-29T12:48:09;42.95;;;5.53;;
68449;SDS011;67758;39.572;2.652;2024-03-29T12:50:36;26.07;;;5.30;;
68449;SDS011;67758;39.572;2.652;2024-03-29T12:53:05;38.95;;;4.75;;
68449;SDS011;67758;39.572;2.652;2024-03-29T12:55:32;37.00;;;4.93;;
68449;SDS011;67758;39.572;2.652;2024-03-29T12:58:01;37.50;;;5.80;;
68449;SDS011;67758;39.572;2.652;2024-03-29T13:00:30;38.95;;;5.30;;
68449;SDS011;67758;39.572;2.652;2024-03-29T13:02:59;34.00;;;5.45;;
68449;SDS011;67758;39.572;2.652;2024-03-29T13:05:26;40.25;;;7.25;;
68449;SDS011;67758;39.572;2.652;2024-03-29T13:07:53;41.92;;;5.50;;
68449;SDS011;67758;39.572;2.652;2024-03-29T13:10:19;37.50;;;6.00;;
68449;SDS011;67758;39.572;2.652;2024-03-29T13:12:49;41.38;;;7.30;;
68449;SDS011;67758;39.572;2.652;2024-03-29T13:15:21;45.35;;;5.53;;
68449;SDS011;67758;39.572;2.652;2024-03-29T13:17:50;33.20;;;9.77;;
68449;SDS011;67758;39.572;2.652;2024-03-29T13:20:20;40.55;;;9.05;;
68449;SDS011;67758;39.572;2.652;2024-03-29T13:22:47;40.53;;;7.55;;
68449;SDS011;67758;39.572;2.652;2024-03-29T13:25:18;49.10;;;5.82;;
68449;SDS011;67758;39.572;2.652;2024-03-29T13:27:45;41.17;;;8.50;;
68449;SDS011;67758;39.572;2.652;2024-03-29T13:30:24;41.13;;;5.85;;
68449;SDS011;67758;39.572;2.652;2024-03-29T13:32:51;31.25;;;5.65;;
68449;SDS011;67758;39.572;2.652;2024-03-29T13:35:20;29.90;;;5.20;;
68449;SDS011;67758;39.572;2.652;2024-03-29T13:37:47;30.42;;;4.50;;
68449;SDS011;67758;39.572;2.652;2024-03-29T13:40:15;30.88;;;4.93;;
68449;SDS011;67758;39.572;2.652;2024-03-29T13:42:42;35.97;;;4.65;;
68449;SDS011;67758;39.572;2.652;2024-03-29T13:45:08;36.40;;;4.80;;
68449;SDS011;67758;39.572;2.652;2024-03-29T13:47:37;30.20;;;4.55;;
68449;SDS011;67758;39.572;2.652;2024-03-29T13:50:07;29.00;;;4.95;;
68449;SDS011;67758;39.572;2.652;2024-03-29T13:52:34;32.25;;;5.22;;
68449;SDS011;67758;39.572;2.652;2024-03-29T13:55:00;29.80;;;4.80;;
68449;SDS011;67758;39.572;2.652;2024-03-29T13:57:30;34.38;;;5.47;;
68449;SDS011;67758;39.572;2.652;2024-03-29T13:59:56;36.17;;;6.07;;
68449;SDS011;67758;39.572;2.652;2024-03-29T14:02:23;34.92;;;4.57;;
68449;SDS011;67758;39.572;2.652;2024-03-29T14:04:51;30.40;;;4.95;;
68449;SDS011;67758;39.572;2.652;2024-03-29T14:07:17;31.02;;;4.32;;
68449;SDS011;67758;39.572;2.652;2024-03-29T14:09:46;29.63;;;4.60;;
68449;SDS011;67758;39.572;2.652;2024-03-29T14:12:13;39.40;;;4.93;;
68449;SDS011;67758;39.572;2.652;2024-03-29T14:14:39;27.65;;;4.47;;
68449;SDS011;67758;39.572;2.652;2024-03-29T14:17:07;35.35;;;4.15;;
68449;SDS011;67758;39.572;2.652;2024-03-29T14:19:34;34.65;;;4.78;;
68449;SDS011;67758;39.572;2.652;2024-03-29T14:22:03;34.00;;;5.17;;
68449;SDS011;67758;39.572;2.652;2024-03-29T14:24:30;37.60;;;4.30;;
68449;SDS011;67758;39.572;2.652;2024-03-29T14:26:58;35.38;;;5.60;;
68449;SDS011;67758;39.572;2.652;2024-03-29T14:29:24;29.75;;;4.85;;
68449;SDS011;67758;39.572;2.652;2024-03-29T14:31:49;23.02;;;4.95;;
68449;SDS011;67758;39.572;2.652;2024-03-29T14:34:16;28.85;;;3.38;;
68449;SDS011;67758;39.572;2.652;2024-03-29T14:36:42;35.65;;;4.18;;
68449;SDS011;67758;39.572;2.652;2024-03-29T14:39:08;27.10;;;4.30;;